createdAt,value
2022-11-20T00:02:06.334Z,23.35
2022-11-20T00:04:56.449Z,23.75
2022-11-20T00:07:37.058Z,23.45
2022-11-20T00:10:18.204Z,20.05
2022-11-20T00:12:53.807Z,23.02
2022-11-20T00:15:37.192Z,25.23
2022-11-20T00:18:16.214Z,25.25
2022-11-20T00:20:56.305Z,28.17
2022-11-20T00:23:40.227Z,25.77
2022-11-20T00:26:30.431Z,27.83
2022-11-20T00:29:17.320Z,27.42
2022-11-20T00:32:00.460Z,26.05
2022-11-20T00:34:43.650Z,26.55
2022-11-20T00:37:23.357Z,27.17
2022-11-20T00:40:27.751Z,27.42
2022-11-20T00:43:15.660Z,24.90
2022-11-20T00:46:25.773Z,26.00
2022-11-20T00:49:12.331Z,27.02
2022-11-20T00:51:59.114Z,26.45
2022-11-20T00:54:40.211Z,26.02
2022-11-20T00:57:23.194Z,27.55
2022-11-20T01:00:04.210Z,29.63
2022-11-20T01:02:52.042Z,26.15
2022-11-20T01:05:29.850Z,28.58
2022-11-20T01:08:16.223Z,27.48
2022-11-20T01:11:06.231Z,28.55
2022-11-20T01:13:43.408Z,29.75
2022-11-20T01:16:31.714Z,27.80
2022-11-20T01:19:14.837Z,29.55
2022-11-20T01:22:04.363Z,28.38
2022-11-20T01:24:39.616Z,29.50
2022-11-20T01:27:25.611Z,29.90
2022-11-20T01:30:12.155Z,27.35
2022-11-20T01:32:53.327Z,28.50
2022-11-20T01:35:33.730Z,27.88
2022-11-20T01:38:14.608Z,29.13
2022-11-20T01:41:05.896Z,28.77
2022-11-20T01:43:41.067Z,29.95
2022-11-20T01:46:28.980Z,33.42
2022-11-20T01:49:38.840Z,31.33
2022-11-20T01:52:28.718Z,30.52
2022-11-20T01:55:13.804Z,33.60
2022-11-20T01:57:59.403Z,33.75
2022-11-20T02:00:43.119Z,30.77
2022-11-20T02:03:35.928Z,29.70
2022-11-20T02:06:29.953Z,30.80
2022-11-20T02:09:14.135Z,30.10
2022-11-20T02:11:51.854Z,30.35
2022-11-20T02:14:37.527Z,28.10
2022-11-20T02:17:15.678Z,28.85
2022-11-20T02:22:47.412Z,26.20
2022-11-20T02:25:26.610Z,29.65
2022-11-20T02:28:04.327Z,27.95
2022-11-20T02:30:39.802Z,28.88
2022-11-20T02:33:27.805Z,27.15
2022-11-20T02:36:14.268Z,26.15
2022-11-20T02:38:53.372Z,28.30
2022-11-20T02:41:39.528Z,29.83
2022-11-20T02:44:24.315Z,29.83
2022-11-20T02:47:05.149Z,27.40
2022-11-20T02:49:42.744Z,27.35
2022-11-20T02:52:23.201Z,28.63
2022-11-20T02:55:11.274Z,19.92
2022-11-20T02:58:04.539Z,28.92
2022-11-20T03:00:53.628Z,27.80
2022-11-20T03:03:39.758Z,27.75
2022-11-20T03:06:28.191Z,27.85
2022-11-20T03:09:11.507Z,27.08
2022-11-20T03:11:55.388Z,31.40
2022-11-20T03:14:39.146Z,29.85
2022-11-20T03:17:33.176Z,29.27
2022-11-20T03:20:08.362Z,28.50
2022-11-20T03:22:43.806Z,30.48
2022-11-20T03:25:28.240Z,29.77
2022-11-20T03:28:11.881Z,28.42
2022-11-20T03:33:32.286Z,29.88
2022-11-20T03:36:10.233Z,27.20
2022-11-20T03:38:56.439Z,31.05
2022-11-20T03:42:05.933Z,29.23
2022-11-20T03:44:51.470Z,29.02
2022-11-20T03:47:35.281Z,29.75
2022-11-20T03:53:03.169Z,27.25
2022-11-20T03:55:46.965Z,32.78
2022-11-20T03:58:36.580Z,31.00
2022-11-20T04:01:22.826Z,30.92
2022-11-20T04:04:00.110Z,31.73
2022-11-20T04:06:47.364Z,30.33
2022-11-20T04:09:30.734Z,28.90
2022-11-20T04:12:14.175Z,28.67
2022-11-20T04:14:57.031Z,30.65
2022-11-20T04:17:46.313Z,32.08
2022-11-20T04:20:28.387Z,29.60
2022-11-20T04:23:08.986Z,28.73
2022-11-20T04:25:49.464Z,29.95
2022-11-20T04:28:33.829Z,31.15
2022-11-20T04:31:27.798Z,30.08
2022-11-20T04:34:10.177Z,30.20
2022-11-20T04:36:53.726Z,30.55
2022-11-20T04:39:31.521Z,34.30
2022-11-20T04:42:33.689Z,32.65
2022-11-20T04:45:14.417Z,32.67
2022-11-20T04:47:51.724Z,32.50
2022-11-20T04:50:32.408Z,30.67
2022-11-20T04:53:10.006Z,32.15
2022-11-20T04:55:50.707Z,34.70
2022-11-20T04:58:34.535Z,33.40
2022-11-20T05:01:28.957Z,32.08
2022-11-20T05:04:12.989Z,31.55
2022-11-20T05:07:00.389Z,33.30
2022-11-20T05:09:53.168Z,31.65
2022-11-20T05:12:31.149Z,31.73
2022-11-20T05:15:12.444Z,31.08
2022-11-20T05:17:55.137Z,33.03
2022-11-20T05:20:37.669Z,31.80
2022-11-20T05:23:14.073Z,29.00
2022-11-20T05:26:10.425Z,30.75
2022-11-20T05:28:46.422Z,28.95
2022-11-20T05:31:30.686Z,31.45
2022-11-20T05:34:07.267Z,33.78
2022-11-20T05:36:59.165Z,30.50
2022-11-20T05:39:37.433Z,31.33
2022-11-20T05:42:29.764Z,28.67
2022-11-20T05:45:17.643Z,29.98
2022-11-20T05:47:55.849Z,30.98
2022-11-20T05:50:39.239Z,32.38
2022-11-20T05:53:19.843Z,31.08
2022-11-20T05:56:15.594Z,33.08
2022-11-20T05:59:04.699Z,29.85
2022-11-20T06:01:47.876Z,33.42
2022-11-20T06:04:28.449Z,33.50
2022-11-20T06:07:06.569Z,31.10
2022-11-20T06:09:42.066Z,29.88
2022-11-20T06:12:34.320Z,33.60
2022-11-20T06:15:17.645Z,37.88
2022-11-20T06:18:01.532Z,31.95
2022-11-20T06:20:44.815Z,34.40
2022-11-20T06:23:25.544Z,32.30
2022-11-20T06:26:21.993Z,32.45
2022-11-20T06:31:44.143Z,33.33
2022-11-20T06:34:31.020Z,36.83
2022-11-20T06:37:14.798Z,34.83
2022-11-20T06:42:41.180Z,36.28
2022-11-20T06:45:24.456Z,40.50
2022-11-20T06:48:04.146Z,36.03
2022-11-20T06:50:39.353Z,33.33
2022-11-20T06:53:19.992Z,31.70
2022-11-20T06:56:00.190Z,34.33
2022-11-20T06:58:39.337Z,31.65
2022-11-20T07:01:24.687Z,34.92
2022-11-20T07:04:02.835Z,36.03
2022-11-20T07:06:46.665Z,33.38
2022-11-20T07:09:34.994Z,39.50
2022-11-20T07:12:11.412Z,35.50
2022-11-20T07:14:57.736Z,35.13
2022-11-20T07:17:39.110Z,33.80
2022-11-20T07:20:20.236Z,35.10
2022-11-20T07:23:11.813Z,32.50
2022-11-20T07:25:53.204Z,32.03
2022-11-20T07:28:37.130Z,30.42
2022-11-20T07:31:19.583Z,35.55
2022-11-20T07:34:13.185Z,34.65
2022-11-20T07:39:36.262Z,31.77
2022-11-20T07:42:26.140Z,32.53
2022-11-20T07:45:05.615Z,29.83
2022-11-20T07:47:52.560Z,30.50
2022-11-20T07:50:39.647Z,33.67
2022-11-20T07:53:22.898Z,33.60
2022-11-20T07:56:07.966Z,34.40
2022-11-20T07:59:06.276Z,31.50
2022-11-20T08:01:50.992Z,31.25
2022-11-20T08:04:34.282Z,33.45
2022-11-20T08:07:18.225Z,32.55
2022-11-20T08:10:00.087Z,31.70
2022-11-20T08:13:03.161Z,33.55
2022-11-20T08:15:54.660Z,30.20
2022-11-20T08:18:33.085Z,28.38
2022-11-20T08:21:11.314Z,29.58
2022-11-20T08:23:51.557Z,28.85
2022-11-20T08:26:31.579Z,29.40
2022-11-20T08:29:09.956Z,29.13
2022-11-20T08:31:53.550Z,30.55
2022-11-20T08:34:33.179Z,31.85
2022-11-20T08:37:11.371Z,37.83
2022-11-20T08:39:54.641Z,33.75
2022-11-20T08:42:43.356Z,24.47
2022-11-20T08:45:34.305Z,33.15
2022-11-20T08:48:19.388Z,33.08
2022-11-20T08:51:14.181Z,38.97
2022-11-20T08:53:54.127Z,30.05
2022-11-20T08:56:49.073Z,28.88
2022-11-20T08:59:51.002Z,28.23
2022-11-20T09:02:36.168Z,31.17
2022-11-20T09:05:28.037Z,30.75
2022-11-20T09:08:25.668Z,29.67
2022-11-20T09:11:06.854Z,31.02
2022-11-20T09:13:48.487Z,26.83
2022-11-20T09:22:47.152Z,27.95
2022-11-20T09:25:39.709Z,28.77
2022-11-20T09:28:18.182Z,27.08
2022-11-20T09:31:26.618Z,30.08
2022-11-20T09:34:11.017Z,25.30
2022-11-20T09:36:51.133Z,27.00
2022-11-20T09:39:37.141Z,26.20
2022-11-20T09:42:28.511Z,29.30
2022-11-20T09:45:22.923Z,26.42
2022-11-20T09:48:22.886Z,24.98
2022-11-20T09:51:23.281Z,27.20
2022-11-20T09:54:10.204Z,28.98
2022-11-20T09:56:53.582Z,28.48
2022-11-20T10:00:00.386Z,27.70
2022-11-20T10:05:50.236Z,26.08
2022-11-20T10:08:39.531Z,29.50
2022-11-20T10:11:40.148Z,29.10
2022-11-20T10:14:59.158Z,27.95
2022-11-20T10:18:12.390Z,28.75
2022-11-20T10:21:42.164Z,27.33
2022-11-20T10:24:39.316Z,29.00
2022-11-20T10:27:51.135Z,27.17
2022-11-20T10:30:40.134Z,26.85
2022-11-20T10:33:24.960Z,25.73
2022-11-20T10:36:34.342Z,29.88
2022-11-20T10:39:47.470Z,27.52
2022-11-20T10:42:49.560Z,27.38
2022-11-20T10:45:54.110Z,29.30
2022-11-20T10:48:35.273Z,29.65
2022-11-20T10:51:43.329Z,29.55
2022-11-20T10:54:38.171Z,29.85
2022-11-20T10:57:47.816Z,28.20
2022-11-20T11:00:37.383Z,27.45
2022-11-20T11:03:31.673Z,27.90
2022-11-20T11:06:22.672Z,23.90
2022-11-20T11:09:16.156Z,25.58
2022-11-20T11:12:15.407Z,24.13
2022-11-20T11:15:04.261Z,23.40
2022-11-20T11:17:56.164Z,21.75
2022-11-20T11:20:38.841Z,23.27
2022-11-20T11:23:37.379Z,23.08
2022-11-20T11:26:29.456Z,22.08
2022-11-20T11:29:07.699Z,24.45
2022-11-20T11:31:50.427Z,25.52
2022-11-20T11:37:19.165Z,22.42
2022-11-20T11:40:23.392Z,24.40
2022-11-20T11:43:38.092Z,27.02
2022-11-20T11:46:35.550Z,22.13
2022-11-20T11:49:31.215Z,20.45
2022-11-20T11:52:20.298Z,23.05
2022-11-20T11:55:39.208Z,24.33
2022-11-20T11:58:43.210Z,21.33
2022-11-20T12:01:35.218Z,22.88
2022-11-20T12:04:29.680Z,22.15
2022-11-20T12:10:46.116Z,21.50
2022-11-20T12:13:43.785Z,24.05
2022-11-20T12:16:20.432Z,23.52
2022-11-20T12:19:05.885Z,23.90
2022-11-20T12:22:30.375Z,23.20
2022-11-20T12:25:48.165Z,21.35
2022-11-20T12:28:41.365Z,26.70
2022-11-20T12:32:00.293Z,27.27
2022-11-20T12:35:11.822Z,22.15
2022-11-20T12:38:07.090Z,24.00
2022-11-20T12:41:10.845Z,22.98
2022-11-20T12:44:15.815Z,20.75
2022-11-20T12:47:16.381Z,23.05
2022-11-20T12:50:22.401Z,25.65
2022-11-20T12:53:30.430Z,26.13
2022-11-20T12:56:34.903Z,28.52
2022-11-20T13:03:16.056Z,28.40
2022-11-20T13:06:20.451Z,24.95
2022-11-20T13:09:07.492Z,25.98
2022-11-20T13:11:57.306Z,26.98
2022-11-20T13:15:05.165Z,25.08
2022-11-20T13:18:17.080Z,29.98
2022-11-20T13:21:09.778Z,36.65
2022-11-20T13:23:53.454Z,33.65
2022-11-20T13:26:35.468Z,25.80
2022-11-20T13:29:29.012Z,25.73
2022-11-20T13:32:33.112Z,25.88
2022-11-20T13:35:31.083Z,26.98
2022-11-20T13:38:28.837Z,26.15
2022-11-20T13:41:34.857Z,28.17
2022-11-20T13:44:38.130Z,26.90
2022-11-20T13:47:30.213Z,28.23
2022-11-20T13:50:13.109Z,24.45
2022-11-20T13:53:14.768Z,26.50
2022-11-20T13:56:27.992Z,27.58
2022-11-20T13:59:27.380Z,27.70
2022-11-20T14:02:11.806Z,26.83
2022-11-20T14:05:07.475Z,26.92
2022-11-20T14:08:07.738Z,27.30
2022-11-20T14:10:57.245Z,28.95
2022-11-20T14:13:41.616Z,27.27
2022-11-20T14:16:45.646Z,25.10
2022-11-20T14:19:38.181Z,26.48
2022-11-20T14:22:37.459Z,24.15
2022-11-20T14:25:38.165Z,24.60
2022-11-20T14:28:29.631Z,25.45
2022-11-20T14:31:17.084Z,27.23
2022-11-20T14:34:11.427Z,29.80
2022-11-20T14:37:08.820Z,32.22
2022-11-20T14:40:26.400Z,29.77
2022-11-20T14:43:32.042Z,25.83
2022-11-20T14:46:16.472Z,26.05
2022-11-20T14:49:12.219Z,29.55
2022-11-20T14:52:22.358Z,28.67
2022-11-20T14:55:17.754Z,27.58
2022-11-20T14:58:04.174Z,31.58
2022-11-20T15:01:01.052Z,37.75
2022-11-20T15:03:51.652Z,40.22
2022-11-20T15:06:33.090Z,34.95
2022-11-20T15:09:22.303Z,36.22
2022-11-20T15:12:23.517Z,39.97
2022-11-20T15:15:09.149Z,34.97
2022-11-20T15:17:46.806Z,34.30
2022-11-20T15:20:29.960Z,33.35
2022-11-20T15:23:19.635Z,28.48
2022-11-20T15:26:03.701Z,33.92
2022-11-20T15:29:01.986Z,31.08
2022-11-20T15:31:59.208Z,33.00
2022-11-20T15:34:50.882Z,35.13
2022-11-20T15:37:44.003Z,32.85
2022-11-20T15:40:17.062Z,34.70
2022-11-20T15:43:13.852Z,35.05
2022-11-20T15:46:14.947Z,35.80
2022-11-20T15:49:00.224Z,35.13
2022-11-20T15:51:43.070Z,35.60
2022-11-20T15:54:29.455Z,39.95
2022-11-20T15:57:10.426Z,38.33
2022-11-20T15:59:56.517Z,40.45
2022-11-20T16:02:45.933Z,38.65
2022-11-20T16:05:37.512Z,37.13
2022-11-20T16:08:19.022Z,39.50
2022-11-20T16:11:11.551Z,35.03
2022-11-20T16:14:07.768Z,37.88
2022-11-20T16:16:49.284Z,36.22
2022-11-20T16:22:09.627Z,33.00
2022-11-20T16:24:54.858Z,38.40
2022-11-20T16:27:42.821Z,38.03
2022-11-20T16:30:23.991Z,33.05
2022-11-20T16:33:18.967Z,35.50
2022-11-20T16:36:04.793Z,32.85
2022-11-20T16:38:44.044Z,37.03
2022-11-20T16:41:27.474Z,32.95
2022-11-20T16:44:09.535Z,32.15
2022-11-20T16:46:52.431Z,34.25
2022-11-20T16:49:35.314Z,34.38
2022-11-20T16:52:22.036Z,34.95
2022-11-20T16:54:57.927Z,36.00
2022-11-20T16:57:42.784Z,38.55
2022-11-20T17:00:20.628Z,34.80
2022-11-20T17:02:59.253Z,41.28
2022-11-20T17:05:39.604Z,39.80
2022-11-20T17:08:25.752Z,35.92
2022-11-20T17:11:22.659Z,35.58
2022-11-20T17:14:00.513Z,36.15
2022-11-20T17:16:43.814Z,33.08
2022-11-20T17:19:34.256Z,33.63
2022-11-20T17:22:20.782Z,33.15
2022-11-20T17:25:03.068Z,35.88
2022-11-20T17:27:43.492Z,34.30
2022-11-20T17:30:27.432Z,33.58
2022-11-20T17:33:07.580Z,36.08
2022-11-20T17:35:47.437Z,33.90
2022-11-20T17:38:28.326Z,45.58
2022-11-20T17:41:19.021Z,37.78
2022-11-20T17:44:01.636Z,34.17
2022-11-20T17:46:42.033Z,34.03
2022-11-20T17:49:24.222Z,37.35
2022-11-20T17:52:06.298Z,46.63
2022-11-20T17:54:44.950Z,41.95
2022-11-20T17:57:48.803Z,40.80
2022-11-20T18:00:36.021Z,41.90
2022-11-20T18:03:11.169Z,40.35
2022-11-20T18:05:59.191Z,38.63
2022-11-20T18:08:49.053Z,42.42
2022-11-20T18:11:34.807Z,44.42
2022-11-20T18:14:26.569Z,51.28
2022-11-20T18:17:04.487Z,45.28
2022-11-20T18:20:14.125Z,46.40
2022-11-20T18:23:04.683Z,47.72
2022-11-20T18:25:44.644Z,44.15
2022-11-20T18:28:24.144Z,44.20
2022-11-20T18:31:02.482Z,41.20
2022-11-20T18:33:54.410Z,42.50
2022-11-20T18:36:35.553Z,46.30
2022-11-20T18:39:15.837Z,47.95
2022-11-20T18:42:03.977Z,50.25
2022-11-20T18:44:53.955Z,56.83
2022-11-20T18:47:37.323Z,56.50
2022-11-20T18:50:23.812Z,62.08
2022-11-20T18:53:08.001Z,71.75
2022-11-20T18:55:51.419Z,83.57
2022-11-20T18:58:33.190Z,87.80
2022-11-20T19:01:23.300Z,82.35
2022-11-20T19:04:17.882Z,81.85
2022-11-20T19:06:58.927Z,76.95
2022-11-20T19:09:43.042Z,66.43
2022-11-20T19:12:27.175Z,57.78
2022-11-20T19:15:04.961Z,55.95
2022-11-20T19:17:42.671Z,56.40
2022-11-20T19:20:31.110Z,58.95
2022-11-20T19:23:13.544Z,67.68
2022-11-20T19:25:54.650Z,62.80
2022-11-20T19:28:42.255Z,56.33
2022-11-20T19:31:29.788Z,63.13
2022-11-20T19:34:09.103Z,67.80
2022-11-20T19:37:11.249Z,70.03
2022-11-20T19:39:48.529Z,76.22
2022-11-20T19:42:31.558Z,71.68
2022-11-20T19:45:09.464Z,79.40
2022-11-20T19:48:06.662Z,71.72
2022-11-20T19:50:56.422Z,69.93
2022-11-20T19:53:35.935Z,65.47
2022-11-20T19:56:20.416Z,67.63
2022-11-20T19:58:58.923Z,66.82
2022-11-20T20:01:41.135Z,61.97
2022-11-20T20:04:26.844Z,64.53
2022-11-20T20:07:09.241Z,60.72
2022-11-20T20:09:59.688Z,68.57
2022-11-20T20:12:43.153Z,60.08
2022-11-20T20:15:27.456Z,57.97
2022-11-20T20:18:13.579Z,61.63
2022-11-20T20:20:52.053Z,56.78
2022-11-20T20:23:41.047Z,61.97
2022-11-20T20:26:21.620Z,62.85
2022-11-20T20:28:57.739Z,65.68
2022-11-20T20:31:46.143Z,73.05
2022-11-20T20:34:31.353Z,75.97
2022-11-20T20:37:16.017Z,67.60
2022-11-20T20:39:53.742Z,64.57
2022-11-20T20:42:29.002Z,59.67
2022-11-20T20:45:12.342Z,64.60
2022-11-20T20:47:55.885Z,60.45
2022-11-20T20:50:37.407Z,58.03
2022-11-20T20:53:21.511Z,59.80
2022-11-20T20:56:09.389Z,55.88
2022-11-20T20:58:52.281Z,55.38
2022-11-20T21:01:30.519Z,60.75
2022-11-20T21:04:11.462Z,62.95
2022-11-20T21:06:54.938Z,56.75
2022-11-20T21:09:27.497Z,63.88
2022-11-20T21:12:02.014Z,60.80
2022-11-20T21:14:43.514Z,61.33
2022-11-20T21:17:26.365Z,66.88
2022-11-20T21:20:22.030Z,61.45
2022-11-20T21:23:06.621Z,62.70
2022-11-20T21:25:50.072Z,62.85
2022-11-20T21:28:30.880Z,58.33
2022-11-20T21:31:31.397Z,56.72
2022-11-20T21:34:17.805Z,58.03
2022-11-20T21:36:50.891Z,57.67
2022-11-20T21:39:50.985Z,58.78
2022-11-20T21:42:22.975Z,63.63
2022-11-20T21:45:09.192Z,70.30
2022-11-20T21:47:48.983Z,80.88
2022-11-20T21:50:33.752Z,83.45
2022-11-20T21:53:18.711Z,92.25
2022-11-20T21:56:20.667Z,78.32
2022-11-20T21:58:59.021Z,67.47
2022-11-20T22:01:45.462Z,71.95
2022-11-20T22:04:32.138Z,66.10
2022-11-20T22:07:14.297Z,73.03
2022-11-20T22:09:57.796Z,69.30
2022-11-20T22:12:44.723Z,67.80
2022-11-20T22:15:58.764Z,69.15
2022-11-20T22:18:42.479Z,64.22
2022-11-20T22:21:25.744Z,62.38
2022-11-20T22:24:12.061Z,65.00
2022-11-20T22:26:49.636Z,59.65
2022-11-20T22:29:28.588Z,65.10
2022-11-20T22:32:13.022Z,72.80
2022-11-20T22:34:57.403Z,68.00
2022-11-20T22:37:39.038Z,70.72
2022-11-20T22:40:21.120Z,70.32
2022-11-20T22:43:06.572Z,67.32
2022-11-20T22:45:50.481Z,65.82
2022-11-20T22:48:27.980Z,61.47
2022-11-20T22:51:16.681Z,60.17
2022-11-20T22:54:03.694Z,61.45
2022-11-20T22:56:44.425Z,58.20
2022-11-20T22:59:27.493Z,59.22
2022-11-20T23:02:11.326Z,60.55
2022-11-20T23:04:58.133Z,60.45
2022-11-20T23:07:41.070Z,63.83
2022-11-20T23:10:20.090Z,67.53
2022-11-20T23:13:01.636Z,71.05
2022-11-20T23:15:44.435Z,65.22
2022-11-20T23:18:21.832Z,63.83
2022-11-20T23:21:23.303Z,62.60
2022-11-20T23:24:04.984Z,60.58
2022-11-20T23:26:52.817Z,65.70
2022-11-20T23:29:40.048Z,68.82
2022-11-20T23:32:30.016Z,62.58
2022-11-20T23:35:07.915Z,64.13
2022-11-20T23:38:10.047Z,67.13
2022-11-20T23:40:54.024Z,65.78
2022-11-20T23:43:37.972Z,70.30
2022-11-20T23:46:25.771Z,64.78
2022-11-20T23:49:08.971Z,63.15
2022-11-20T23:52:04.230Z,62.92
2022-11-20T23:54:52.934Z,64.80
2022-11-20T23:57:34.039Z,63.08
